Time;durP1;ratioP1;P1;durP2;ratioP2;P2;SDS_P1;SDS_P2;PMS_P1;PMS_P2;Temp;Humidity;BMP_temperature;BMP_pressure;BME280_temperature;BME280_humidity;BME280_pressure;Samples;Min_cycle;Max_cycle;Signal;HPM_P1;HPM_P2
2021/03/15 00:00:13;;;;;;;10.95;2.55;;;9.40;82.00;9.40;100036.00;;;;344013;28;89429;-87
2021/03/15 00:00:25;;;;;;;8.02;2.33;;;9.40;81.80;9.50;100035.00;;;;340332;28;83443;-87
2021/03/15 00:00:36;;;;;;;5.60;2.40;;;9.30;81.60;9.50;100046.00;;;;340059;28;92603;-86
2021/03/15 00:00:50;;;;;;;6.20;2.60;;;9.40;81.80;9.30;100040.00;;;;341525;28;83415;-88
2021/03/15 00:01:06;;;;;;;5.32;2.35;;;9.40;82.60;9.30;100041.00;;;;342822;28;89763;-86
2021/03/15 00:01:18;;;;;;;6.88;2.65;;;9.40;82.10;9.30;100046.00;;;;343280;28;83354;-86
2021/03/15 00:01:30;;;;;;;8.90;2.78;;;9.30;82.10;9.50;100042.00;;;;338667;28;89187;-87
2021/03/15 00:01:44;;;;;;;7.90;2.55;;;9.30;82.00;9.50;100052.00;;;;343110;28;83349;-87
2021/03/15 00:01:55;;;;;;;6.88;2.63;;;9.30;82.00;9.60;100037.00;;;;341357;28;90609;-87
2021/03/15 00:02:07;;;;;;;6.20;2.53;;;9.40;82.10;9.60;100033.00;;;;343135;28;82491;-87
2021/03/15 00:02:19;;;;;;;5.28;2.10;;;9.40;82.00;9.60;100042.00;;;;342796;28;89149;-86
2021/03/15 00:02:31;;;;;;;4.70;1.88;;;9.40;82.00;9.50;100040.00;;;;340499;28;83959;-88
2021/03/15 00:02:44;;;;;;;5.88;2.40;;;9.40;81.80;9.40;100045.00;;;;340150;28;87994;-88
2021/03/15 00:02:56;;;;;;;7.75;2.95;;;9.40;81.80;9.40;100042.00;;;;342083;28;83603;-87
2021/03/15 00:03:08;;;;;;;8.38;2.88;;;9.40;81.80;9.50;100042.00;;;;342886;28;90614;-87
2021/03/15 00:03:39;;;;;;;7.13;2.75;;;9.40;81.80;9.60;100045.00;;;;340478;28;83398;-87
2021/03/15 00:03:51;;;;;;;9.48;2.97;;;9.40;81.70;9.70;100039.00;;;;340107;28;88653;-88
2021/03/15 00:04:03;;;;;;;10.57;3.25;;;9.40;81.80;9.70;100036.00;;;;344053;28;83569;-89
2021/03/15 00:04:14;;;;;;;9.95;3.10;;;9.40;82.00;9.70;100033.00;;;;342526;28;93775;-87
2021/03/15 00:04:26;;;;;;;8.93;2.30;;;9.40;81.80;9.60;100040.00;;;;343087;28;84011;-87
2021/03/15 00:04:37;;;;;;;8.15;2.03;;;9.40;81.40;9.30;100042.00;;;;342749;28;90847;-87
2021/03/15 00:04:49;;;;;;;6.70;1.92;;;9.40;80.40;9.30;100041.00;;;;341302;28;85329;-87
2021/03/15 00:05:00;;;;;;;7.00;2.33;;;9.30;78.70;9.30;100044.00;;;;341323;28;91771;-87
2021/03/15 00:05:13;;;;;;;8.15;2.30;;;9.40;78.90;9.30;100034.00;;;;343046;28;85040;-88
2021/03/15 00:05:24;;;;;;;7.72;2.00;;;9.30;78.90;9.20;100039.00;;;;341380;28;91823;-88
2021/03/15 00:05:36;;;;;;;7.35;1.83;;;9.30;78.30;9.20;100038.00;;;;343111;28;83725;-87
2021/03/15 00:05:47;;;;;;;6.05;1.40;;;9.30;78.30;9.20;100045.00;;;;341364;28;91138;-87
2021/03/15 00:05:59;;;;;;;5.40;1.25;;;9.30;78.30;9.10;100041.00;;;;341723;28;84856;-87
2021/03/15 00:06:10;;;;;;;5.22;1.38;;;9.20;79.00;9.00;100049.00;;;;342829;28;90637;-88
2021/03/15 00:06:22;;;;;;;7.22;1.90;;;9.20;78.40;9.00;100033.00;;;;341790;28;83493;-88
2021/03/15 00:06:33;;;;;;;8.88;2.28;;;9.10;79.10;9.00;100045.00;;;;341486;28;89986;-87
2021/03/15 00:06:45;;;;;;;9.88;2.40;;;9.00;78.70;8.90;100046.00;;;;341912;28;83682;-86
2021/03/15 00:06:57;;;;;;;8.68;2.00;;;9.00;79.40;8.90;100045.00;;;;342832;28;89832;-88
2021/03/15 00:07:08;;;;;;;8.93;1.88;;;9.00;79.00;9.00;100044.00;;;;341631;28;83495;-88
2021/03/15 00:07:20;;;;;;;10.24;2.00;;;9.00;79.10;9.00;100037.00;;;;340191;28;89434;-87
2021/03/15 00:07:31;;;;;;;9.73;2.20;;;8.90;79.20;9.10;100038.00;;;;341769;28;83442;-87
2021/03/15 00:07:43;;;;;;;7.18;2.30;;;8.90;79.50;9.00;100030.00;;;;341439;28;89721;-88
2021/03/15 00:07:56;;;;;;;6.65;2.13;;;8.90;79.70;9.00;100035.00;;;;343020;28;83389;-89
2021/03/15 00:08:08;;;;;;;9.73;2.17;;;8.90;79.70;8.90;100043.00;;;;344151;28;89581;-86
2021/03/15 00:08:20;;;;;;;9.88;1.77;;;8.90;79.50;9.00;100038.00;;;;341693;28;82516;-87
2021/03/15 00:08:32;;;;;;;8.82;1.58;;;8.90;79.50;9.10;100035.00;;;;341399;28;90139;-87
2021/03/15 00:08:45;;;;;;;5.97;1.33;;;8.80;79.50;9.10;100040.00;;;;341914;28;83290;-87
2021/03/15 00:08:56;;;;;;;5.57;1.40;;;8.80;79.80;9.00;100040.00;;;;342263;28;92140;-87
2021/03/15 00:09:08;;;;;;;5.60;1.48;;;8.80;79.70;9.20;100038.00;;;;339171;28;83428;-87
2021/03/15 00:09:19;;;;;;;5.32;1.65;;;8.90;79.60;9.20;100026.00;;;;340113;28;88691;-88
2021/03/15 00:09:30;;;;;;;5.97;1.70;;;8.90;79.60;9.30;100033.00;;;;341539;28;83400;-87
2021/03/15 00:09:42;;;;;;;7.35;1.48;;;8.90;80.10;9.20;100036.00;;;;341243;28;91046;-87
2021/03/15 00:09:54;;;;;;;8.00;2.10;;;8.90;80.00;9.10;100046.00;;;;343059;28;83502;-89
2021/03/15 00:10:07;;;;;;;6.55;2.20;;;8.90;79.30;9.20;100040.00;;;;341334;28;92303;-87
2021/03/15 00:10:19;;;;;;;6.18;2.10;;;8.90;79.20;9.20;100032.00;;;;343166;28;83531;-87
2021/03/15 00:10:31;;;;;;;6.45;1.90;;;8.90;79.30;9.30;100041.00;;;;342561;28;91036;-86
2021/03/15 00:10:42;;;;;;;6.47;1.85;;;8.90;79.20;9.20;100040.00;;;;341782;28;85329;-87
2021/03/15 00:10:55;;;;;;;7.90;1.60;;;8.90;79.10;9.20;100037.00;;;;342415;28;91374;-87
2021/03/15 00:11:07;;;;;;;8.85;1.45;;;8.90;79.00;9.20;100042.00;;;;344427;28;83994;-87
2021/03/15 00:11:18;;;;;;;9.23;1.85;;;8.90;78.80;9.10;100044.00;;;;341593;28;88166;-87
2021/03/15 00:11:29;;;;;;;6.95;1.65;;;8.90;78.70;9.00;100045.00;;;;341794;28;84849;-87
2021/03/15 00:11:41;;;;;;;5.45;1.35;;;8.90;78.80;9.00;100044.00;;;;339959;28;88236;-87
2021/03/15 00:11:53;;;;;;;4.82;1.60;;;8.90;78.90;9.10;100042.00;;;;342549;28;83308;-89
2021/03/15 00:12:05;;;;;;;4.93;1.90;;;8.90;78.90;9.00;100050.00;;;;342582;28;92936;-88
2021/03/15 00:12:17;;;;;;;8.65;1.85;;;8.90;79.00;9.00;100040.00;;;;341795;28;83531;-87
2021/03/15 00:12:28;;;;;;;9.48;1.75;;;8.90;78.90;9.00;100038.00;;;;340694;28;91611;-88
2021/03/15 00:12:40;;;;;;;9.68;1.70;;;8.90;78.90;9.00;100048.00;;;;341759;28;83412;-87
2021/03/15 00:12:52;;;;;;;6.00;1.60;;;8.90;78.90;9.00;100041.00;;;;343931;28;92261;-88
2021/03/15 00:13:04;;;;;;;6.68;1.50;;;8.90;78.70;8.90;100046.00;;;;342779;28;83591;-87
2021/03/15 00:13:15;;;;;;;6.03;1.45;;;8.80;78.50;8.90;100034.00;;;;337319;28;90644;-87
2021/03/15 00:13:27;;;;;;;6.18;1.60;;;8.80;78.70;9.10;100038.00;;;;340406;28;83375;-87
2021/03/15 00:13:39;;;;;;;6.12;1.76;;;8.80;79.00;9.20;100031.00;;;;338602;28;90107;-88
2021/03/15 00:13:51;;;;;;;5.65;1.55;;;8.80;79.00;9.20;100036.00;;;;338851;28;83581;-87
2021/03/15 00:14:02;;;;;;;6.80;1.80;;;8.90;79.00;9.20;100035.00;;;;338411;28;90312;-87
2021/03/15 00:14:14;;;;;;;6.18;1.58;;;8.90;78.90;9.30;100032.00;;;;340415;28;82673;-87
2021/03/15 00:14:25;;;;;;;5.45;1.40;;;8.90;78.70;9.20;100032.00;;;;340060;28;88676;-87
2021/03/15 00:14:38;;;;;;;4.95;1.33;;;8.90;78.60;9.20;100037.00;;;;340480;28;83627;-87
2021/03/15 00:14:50;;;;;;;7.28;1.58;;;8.90;78.60;9.20;100038.00;;;;339977;28;89123;-86
2021/03/15 00:15:03;;;;;;;7.65;1.48;;;8.90;79.30;9.30;100033.00;;;;342575;28;84718;-87
2021/03/15 00:15:17;;;;;;;8.05;1.58;;;8.90;78.70;9.30;100043.00;;;;342727;28;91517;-87
2021/03/15 00:15:29;;;;;;;8.27;2.25;;;8.90;78.60;9.40;100039.00;;;;339940;28;83746;-87
2021/03/15 00:15:42;;;;;;;7.47;2.03;;;9.00;78.50;9.20;100034.00;;;;341298;28;89319;-87
2021/03/15 00:15:55;;;;;;;4.90;1.48;;;9.00;78.60;9.10;100037.00;;;;341608;28;83434;-90
2021/03/15 00:16:07;;;;;;;4.50;1.40;;;9.00;78.30;9.10;100033.00;;;;340784;28;90632;-87
2021/03/15 00:16:18;;;;;;;5.13;1.85;;;8.90;78.10;9.10;100035.00;;;;338962;28;83715;-87
2021/03/15 00:16:30;;;;;;;5.65;1.60;;;8.90;78.10;9.20;100036.00;;;;338831;28;87942;-87
2021/03/15 00:16:42;;;;;;;5.90;1.35;;;8.90;78.30;9.20;100032.00;;;;340194;28;83831;-88
2021/03/15 00:16:54;;;;;;;6.07;1.10;;;8.90;78.50;9.20;100030.00;;;;341341;28;87526;-87
2021/03/15 00:17:05;;;;;;;5.88;1.13;;;9.00;78.60;9.10;100041.00;;;;341706;28;82435;-86
2021/03/15 00:17:17;;;;;;;5.45;1.38;;;8.90;78.60;9.20;100033.00;;;;338713;28;89622;-88
2021/03/15 00:17:29;;;;;;;4.43;1.50;;;9.00;78.60;9.20;100033.00;;;;341396;28;83552;-87
2021/03/15 00:17:41;;;;;;;5.30;1.58;;;9.00;78.60;9.10;100039.00;;;;342690;28;89735;-87
2021/03/15 00:17:53;;;;;;;6.57;1.63;;;9.00;78.50;9.20;100040.00;;;;341818;28;83340;-87
2021/03/15 00:18:04;;;;;;;6.35;1.83;;;9.00;78.50;9.20;100032.00;;;;341497;28;90951;-87
2021/03/15 00:18:17;;;;;;;6.82;1.88;;;9.00;78.50;9.10;100033.00;;;;341424;28;84023;-88
2021/03/15 00:18:30;;;;;;;7.65;2.00;;;8.90;77.90;9.10;100031.00;;;;341083;28;90029;-86
2021/03/15 00:18:42;;;;;;;7.03;1.77;;;8.90;77.80;9.00;100025.00;;;;342925;28;84771;-88
2021/03/15 00:18:54;;;;;;;6.18;1.33;;;8.90;77.10;9.00;100036.00;;;;342181;28;91213;-87
2021/03/15 00:19:06;;;;;;;5.95;1.25;;;8.90;77.30;9.10;100040.00;;;;341597;28;83499;-87
2021/03/15 00:19:17;;;;;;;5.80;1.55;;;8.90;77.40;9.20;100033.00;;;;341457;28;88603;-87
2021/03/15 00:19:31;;;;;;;6.32;1.58;;;8.90;77.60;9.20;100029.00;;;;340314;28;83462;-87
2021/03/15 00:19:43;;;;;;;6.75;1.67;;;8.90;77.60;9.20;100033.00;;;;341298;28;90006;-87
2021/03/15 00:19:54;;;;;;;6.22;1.33;;;8.90;77.80;9.10;100031.00;;;;340381;28;83360;-87
2021/03/15 00:20:09;;;;;;;6.53;1.27;;;8.90;77.60;9.10;100036.00;;;;341226;28;90843;-87
2021/03/15 00:20:21;;;;;;;9.27;2.30;;;8.90;77.80;9.20;100029.00;;;;339993;28;83851;-88
2021/03/15 00:20:33;;;;;;;11.07;2.60;;;8.90;77.80;9.20;100036.00;;;;341042;28;90610;-87
2021/03/15 00:20:45;;;;;;;11.45;2.20;;;8.90;77.70;9.20;100032.00;;;;343094;28;83663;-86
2021/03/15 00:20:57;;;;;;;8.88;1.50;;;8.90;77.90;9.10;100029.00;;;;338985;28;89373;-87
2021/03/15 00:21:08;;;;;;;7.35;1.33;;;8.90;77.00;9.10;100033.00;;;;340231;28;83784;-88
2021/03/15 00:21:20;;;;;;;9.23;1.52;;;8.90;77.00;9.20;100032.00;;;;338646;28;89107;-86
2021/03/15 00:21:32;;;;;;;9.52;1.65;;;8.90;77.20;9.20;100036.00;;;;340275;28;83481;-87
2021/03/15 00:21:43;;;;;;;8.52;1.92;;;8.90;77.10;9.10;100035.00;;;;340977;28;88455;-86
2021/03/15 00:21:55;;;;;;;6.13;1.70;;;8.90;76.30;9.10;100033.00;;;;338942;28;82569;-87
2021/03/15 00:22:07;;;;;;;6.53;1.50;;;8.90;76.20;9.20;100036.00;;;;341347;28;89701;-87
2021/03/15 00:22:18;;;;;;;5.80;1.13;;;8.90;76.30;9.20;100032.00;;;;341477;28;84147;-87
2021/03/15 00:22:30;;;;;;;4.68;1.25;;;8.90;76.40;9.20;100043.00;;;;339885;28;88437;-87
2021/03/15 00:22:42;;;;;;;6.75;1.90;;;8.90;76.40;9.20;100034.00;;;;340336;28;83413;-87
2021/03/15 00:22:53;;;;;;;6.38;1.80;;;8.90;76.20;9.10;100040.00;;;;339948;28;89089;-87
2021/03/15 00:23:05;;;;;;;5.95;1.20;;;8.90;76.20;9.20;100029.00;;;;341649;28;83412;-87
2021/03/15 00:23:17;;;;;;;7.30;1.33;;;8.90;76.20;9.30;100029.00;;;;342742;28;88613;-87
2021/03/15 00:23:29;;;;;;;6.47;1.38;;;8.90;76.50;9.20;100038.00;;;;340376;28;82521;-87
2021/03/15 00:23:40;;;;;;;4.25;1.17;;;8.90;76.10;9.10;100034.00;;;;338556;28;89095;-88
2021/03/15 00:23:52;;;;;;;3.88;1.13;;;8.90;75.80;9.20;100038.00;;;;341011;28;84177;-87
2021/03/15 00:24:05;;;;;;;4.93;1.10;;;8.90;75.80;9.20;100036.00;;;;339105;28;89952;-86
2021/03/15 00:24:16;;;;;;;6.88;1.20;;;8.90;76.20;9.20;100036.00;;;;341689;28;83434;-87
2021/03/15 00:24:27;;;;;;;6.72;1.42;;;8.90;76.30;9.20;100026.00;;;;340747;28;88270;-87
2021/03/15 00:24:39;;;;;;;6.03;1.30;;;8.90;76.40;9.30;100036.00;;;;343171;28;83323;-87
2021/03/15 00:24:51;;;;;;;7.55;1.85;;;8.90;76.50;9.20;100034.00;;;;342635;28;90808;-87
2021/03/15 00:25:04;;;;;;;7.00;1.65;;;8.90;76.60;9.30;100034.00;;;;341477;28;84116;-87
2021/03/15 00:25:17;;;;;;;8.10;1.58;;;8.90;76.40;9.30;100041.00;;;;342767;28;88546;-87
2021/03/15 00:25:28;;;;;;;6.70;1.30;;;8.90;76.40;9.40;100038.00;;;;340176;28;84449;-87
2021/03/15 00:25:40;;;;;;;6.60;1.10;;;8.90;76.50;9.30;100034.00;;;;343955;28;91782;-87
2021/03/15 00:25:52;;;;;;;6.32;1.13;;;8.90;76.40;9.40;100033.00;;;;341772;28;82573;-88
2021/03/15 00:26:03;;;;;;;6.63;1.30;;;9.00;76.50;9.40;100038.00;;;;341073;28;90336;-87
2021/03/15 00:26:15;;;;;;;6.47;1.55;;;9.00;76.40;9.30;100030.00;;;;340292;28;83484;-88
2021/03/15 00:26:26;;;;;;;6.28;1.42;;;9.00;76.20;9.30;100034.00;;;;344101;28;89305;-87
2021/03/15 00:26:38;;;;;;;5.18;1.20;;;9.00;76.20;9.30;100037.00;;;;341703;28;83398;-87
2021/03/15 00:26:49;;;;;;;5.40;1.00;;;9.00;76.20;9.30;100031.00;;;;339900;28;87274;-87
2021/03/15 00:27:01;;;;;;;5.10;1.02;;;9.00;76.60;9.40;100032.00;;;;342306;28;82478;-87
2021/03/15 00:27:13;;;;;;;5.13;1.10;;;9.00;76.70;9.50;100029.00;;;;342928;28;89666;-87
2021/03/15 00:27:24;;;;;;;7.25;1.10;;;9.00;76.70;9.40;100034.00;;;;340373;28;83376;-87
2021/03/15 00:27:36;;;;;;;6.88;0.98;;;9.00;76.50;9.50;100029.00;;;;340876;28;88320;-87
2021/03/15 00:27:47;;;;;;;4.93;1.48;;;9.00;76.30;9.30;100031.00;;;;343050;28;83474;-86
2021/03/15 00:27:59;;;;;;;5.85;1.58;;;9.00;76.20;9.30;100029.00;;;;343173;28;90602;-87
2021/03/15 00:28:11;;;;;;;5.45;1.42;;;9.00;76.20;9.30;100028.00;;;;341701;28;83375;-87
2021/03/15 00:28:22;;;;;;;5.25;1.20;;;9.10;76.00;9.40;100033.00;;;;340920;28;89936;-87
2021/03/15 00:28:34;;;;;;;6.38;1.25;;;9.00;76.10;9.40;100040.00;;;;340198;28;83697;-88
2021/03/15 00:28:46;;;;;;;6.10;0.90;;;9.10;76.30;9.50;100028.00;;;;339917;28;88874;-87
2021/03/15 00:28:57;;;;;;;6.13;0.80;;;9.10;76.30;9.50;100038.00;;;;342983;28;82304;-88
2021/03/15 00:29:09;;;;;;;7.25;1.08;;;9.10;76.40;9.50;100035.00;;;;341151;28;89077;-87
2021/03/15 00:29:21;;;;;;;8.10;1.15;;;9.10;76.40;9.30;100036.00;;;;344414;28;83376;-87
2021/03/15 00:29:33;;;;;;;8.88;1.50;;;9.10;75.60;9.40;100035.00;;;;341323;28;89031;-87
2021/03/15 00:29:44;;;;;;;8.82;1.30;;;9.10;75.60;9.30;100029.00;;;;342732;28;83496;-87
2021/03/15 00:29:56;;;;;;;6.25;0.98;;;9.10;76.40;9.30;100032.00;;;;342865;28;88959;-87
2021/03/15 00:30:10;;;;;;;8.32;1.38;;;9.10;75.60;9.30;100034.00;;;;342835;28;83371;-87
2021/03/15 00:30:22;;;;;;;8.43;1.95;;;9.10;75.60;9.40;100032.00;;;;340009;28;89411;-88
2021/03/15 00:30:33;;;;;;;7.75;1.80;;;9.10;75.60;9.40;100031.00;;;;340072;28;84073;-87
2021/03/15 00:30:45;;;;;;;5.57;1.20;;;9.10;76.10;9.30;100035.00;;;;342491;28;89623;-87
2021/03/15 00:30:57;;;;;;;5.25;1.02;;;9.10;75.40;9.20;100033.00;;;;342999;28;84061;-87
2021/03/15 00:31:08;;;;;;;5.68;1.05;;;9.10;75.40;9.30;100036.00;;;;342563;28;89409;-87
2021/03/15 00:31:20;;;;;;;5.68;0.95;;;9.10;75.50;9.30;100035.00;;;;342902;28;83513;-86
2021/03/15 00:31:32;;;;;;;6.15;1.45;;;9.10;75.70;9.40;100035.00;;;;340934;28;91060;-87
2021/03/15 00:31:44;;;;;;;6.57;1.55;;;9.10;75.80;9.40;100028.00;;;;341703;28;83380;-87
2021/03/15 00:31:55;;;;;;;6.28;1.70;;;9.10;76.50;9.30;100037.00;;;;341293;28;92067;-87
2021/03/15 00:32:07;;;;;;;7.22;1.88;;;9.10;75.90;9.40;100040.00;;;;340223;28;84601;-87
2021/03/15 00:32:19;;;;;;;6.85;2.00;;;9.10;76.00;9.40;100038.00;;;;338587;28;89507;-87
2021/03/15 00:32:31;;;;;;;6.10;1.75;;;9.10;76.50;9.40;100026.00;;;;341441;28;83562;-87
2021/03/15 00:32:44;;;;;;;5.80;1.33;;;9.10;75.70;9.30;100026.00;;;;339742;28;92285;-87
2021/03/15 00:32:56;;;;;;;6.40;1.23;;;9.10;75.50;9.30;100039.00;;;;341342;28;83606;-87
2021/03/15 00:33:08;;;;;;;6.20;1.10;;;9.10;75.10;9.20;100041.00;;;;342843;28;89671;-87
2021/03/15 00:33:23;;;;;;;6.57;1.30;;;9.10;74.80;9.20;100036.00;;;;341485;28;82466;-88
2021/03/15 00:33:34;;;;;;;5.18;1.15;;;9.10;75.00;9.20;100032.00;;;;339905;28;87986;-86
2021/03/15 00:34:02;;;;;;;5.22;1.40;;;9.10;75.00;9.20;100036.00;;;;340195;28;83477;-88
2021/03/15 00:34:14;;;;;;;5.28;1.52;;;9.00;74.80;9.20;100029.00;;;;341253;28;88528;-87
2021/03/15 00:34:25;;;;;;;3.90;1.13;;;9.00;75.00;9.20;100034.00;;;;341664;28;83391;-87
2021/03/15 00:34:37;;;;;;;4.35;1.25;;;9.00;75.10;9.20;100032.00;;;;339910;28;89491;-88
2021/03/15 00:34:48;;;;;;;4.45;1.25;;;9.00;75.30;9.20;100042.00;;;;341543;28;83452;-87
2021/03/15 00:35:00;;;;;;;5.20;1.10;;;9.00;75.20;9.30;100028.00;;;;341230;28;91594;-87
2021/03/15 00:35:13;;;;;;;4.93;1.00;;;9.00;75.30;9.20;100032.00;;;;341490;28;83643;-87
2021/03/15 00:35:25;;;;;;;4.15;1.10;;;9.00;75.10;9.10;100036.00;;;;341443;28;88919;-87
2021/03/15 00:35:36;;;;;;;5.25;1.05;;;9.00;75.00;9.10;100039.00;;;;340166;28;83382;-87
2021/03/15 00:35:48;;;;;;;6.15;1.00;;;9.00;75.00;9.20;100031.00;;;;339977;28;89270;-86
2021/03/15 00:35:59;;;;;;;5.93;0.93;;;9.00;75.10;9.30;100029.00;;;;340011;28;83547;-87
2021/03/15 00:36:11;;;;;;;5.10;0.93;;;8.90;75.20;9.30;100031.00;;;;342620;28;90257;-87
2021/03/15 00:36:23;;;;;;;5.15;0.90;;;9.00;76.00;9.20;100024.00;;;;338911;28;83628;-87
2021/03/15 00:36:34;;;;;;;5.68;0.70;;;8.90;75.20;9.20;100027.00;;;;341343;28;89585;-87
2021/03/15 00:36:46;;;;;;;5.07;0.75;;;8.90;75.10;9.10;100020.00;;;;341221;28;83516;-86
2021/03/15 00:36:57;;;;;;;4.80;0.80;;;8.90;75.10;9.20;100034.00;;;;341142;28;89538;-87
2021/03/15 00:37:09;;;;;;;5.13;0.88;;;8.90;75.50;9.20;100034.00;;;;340350;28;83414;-87
2021/03/15 00:37:20;;;;;;;4.80;0.98;;;8.90;75.70;9.20;100028.00;;;;338678;28;88618;-87
2021/03/15 00:37:32;;;;;;;5.13;1.08;;;8.90;75.50;9.10;100033.00;;;;341775;28;82298;-87
2021/03/15 00:37:44;;;;;;;5.80;1.23;;;8.90;75.30;9.10;100023.00;;;;342353;28;90639;-87
2021/03/15 00:37:55;;;;;;;6.43;1.35;;;8.90;75.30;9.20;100028.00;;;;340368;28;83448;-87
2021/03/15 00:38:07;;;;;;;9.32;1.27;;;8.90;75.50;9.20;100028.00;;;;338655;28;89941;-87
2021/03/15 00:38:18;;;;;;;9.77;1.30;;;8.90;75.70;9.20;100026.00;;;;340303;28;82567;-88
2021/03/15 00:38:30;;;;;;;8.93;1.00;;;8.90;75.70;9.30;100026.00;;;;338703;28;89461;-87
2021/03/15 00:38:43;;;;;;;5.40;1.15;;;8.90;75.70;9.20;100028.00;;;;341407;28;83634;-88
2021/03/15 00:38:54;;;;;;;5.93;1.00;;;8.90;75.70;9.10;100021.00;;;;338887;28;87841;-87
2021/03/15 00:39:06;;;;;;;6.32;0.98;;;8.90;75.30;9.10;100032.00;;;;341353;28;82533;-87
2021/03/15 00:39:20;;;;;;;6.18;1.00;;;8.90;75.00;9.30;100019.00;;;;341095;28;90527;-86
2021/03/15 00:39:32;;;;;;;5.82;1.10;;;8.90;75.20;9.30;100032.00;;;;340265;28;83446;-88
2021/03/15 00:39:44;;;;;;;6.93;1.30;;;8.90;75.80;9.20;100028.00;;;;341256;28;92503;-87
2021/03/15 00:39:56;;;;;;;6.95;1.52;;;8.90;75.00;9.10;100025.00;;;;341545;28;83885;-87
2021/03/15 00:40:10;;;;;;;6.38;1.38;;;8.90;74.80;9.10;100025.00;;;;341265;28;90401;-86
2021/03/15 00:40:23;;;;;;;6.43;1.38;;;8.90;74.70;9.10;100028.00;;;;341455;28;83487;-87
2021/03/15 00:40:34;;;;;;;5.93;1.10;;;8.90;74.80;9.00;100025.00;;;;341367;28;88571;-87
2021/03/15 00:40:45;;;;;;;6.45;1.20;;;8.90;75.50;9.00;100030.00;;;;341650;28;83427;-91
2021/03/15 00:40:57;;;;;;;7.03;1.48;;;8.90;74.90;9.10;100024.00;;;;339771;28;88612;-87
2021/03/15 00:41:08;;;;;;;8.10;1.80;;;8.90;75.00;9.00;100023.00;;;;339068;28;82481;-87
2021/03/15 00:41:20;;;;;;;10.88;2.15;;;8.90;75.10;9.20;100026.00;;;;341313;28;88057;-87
2021/03/15 00:41:31;;;;;;;9.90;1.88;;;8.90;75.20;9.30;100019.00;;;;342700;28;83812;-87
2021/03/15 00:41:43;;;;;;;7.57;1.48;;;8.90;75.30;9.30;100022.00;;;;341286;28;89591;-88
2021/03/15 00:41:55;;;;;;;7.03;1.60;;;8.90;75.40;9.20;100027.00;;;;339931;28;83826;-87
2021/03/15 00:42:07;;;;;;;7.15;1.63;;;8.90;75.40;9.20;100029.00;;;;341673;28;92221;-87
2021/03/15 00:42:19;;;;;;;5.57;1.30;;;8.90;75.50;9.20;100023.00;;;;341622;28;83420;-88
2021/03/15 00:42:30;;;;;;;4.43;0.95;;;8.90;75.70;9.20;100028.00;;;;342284;28;90893;-87
2021/03/15 00:42:44;;;;;;;4.80;0.76;;;8.90;75.60;9.10;100027.00;;;;341723;28;82719;-88
2021/03/15 00:42:56;;;;;;;4.28;0.60;;;8.90;75.60;9.10;100022.00;;;;341084;28;87683;-87
2021/03/15 00:43:08;;;;;;;3.63;0.88;;;8.90;75.50;9.20;100024.00;;;;341741;28;83437;-87
2021/03/15 00:43:19;;;;;;;4.15;1.00;;;8.90;75.40;9.20;100019.00;;;;341010;28;88660;-89
2021/03/15 00:43:31;;;;;;;4.44;0.86;;;8.90;75.40;9.20;100012.00;;;;340045;28;83800;-86
2021/03/15 00:43:43;;;;;;;5.25;0.98;;;8.90;75.30;9.30;100019.00;;;;341338;28;92527;-87
2021/03/15 00:43:55;;;;;;;5.78;1.15;;;8.90;75.10;9.30;100020.00;;;;340381;28;83367;-87
2021/03/15 00:44:08;;;;;;;5.90;1.10;;;9.00;75.00;9.30;100021.00;;;;339955;28;89235;-87
2021/03/15 00:44:19;;;;;;;6.32;1.05;;;9.00;74.90;9.30;100018.00;;;;340356;28;82440;-87
2021/03/15 00:44:31;;;;;;;5.30;0.93;;;9.00;74.80;9.30;100018.00;;;;340022;28;88861;-87
2021/03/15 00:44:43;;;;;;;4.97;0.77;;;9.00;74.80;9.20;100023.00;;;;341385;28;82570;-87
2021/03/15 00:44:54;;;;;;;5.63;1.08;;;9.00;74.70;9.20;100016.00;;;;339991;28;89666;-87
2021/03/15 00:45:07;;;;;;;6.50;1.55;;;9.00;74.50;9.10;100019.00;;;;344089;28;83837;-87
2021/03/15 00:45:21;;;;;;;5.05;1.55;;;9.00;74.50;9.20;100022.00;;;;341326;28;88625;-87
2021/03/15 00:45:33;;;;;;;5.93;1.83;;;8.90;74.40;9.30;100019.00;;;;342510;28;83267;-87
2021/03/15 00:45:45;;;;;;;7.75;1.80;;;9.00;74.70;9.20;100014.00;;;;343805;28;91646;-87
2021/03/15 00:45:57;;;;;;;7.22;1.25;;;9.00;75.50;9.30;100012.00;;;;342894;28;82294;-88
2021/03/15 00:46:09;;;;;;;7.25;0.93;;;9.00;75.00;9.20;100021.00;;;;339913;28;88893;-88
2021/03/15 00:46:21;;;;;;;8.75;0.98;;;9.00;74.70;9.20;100017.00;;;;341499;28;83496;-87
2021/03/15 00:46:32;;;;;;;6.80;1.00;;;8.90;74.40;9.10;100023.00;;;;341352;28;88794;-87
2021/03/15 00:46:44;;;;;;;6.47;1.30;;;9.00;74.50;9.10;100017.00;;;;339072;28;83373;-87
2021/03/15 00:46:56;;;;;;;6.00;1.35;;;8.90;74.40;9.00;100021.00;;;;339925;28;88969;-87
2021/03/15 00:47:07;;;;;;;8.52;1.83;;;8.90;74.30;9.00;100017.00;;;;342749;28;83677;-87
2021/03/15 00:47:19;;;;;;;8.00;1.95;;;8.90;74.20;9.00;100011.00;;;;339814;28;90753;-87
2021/03/15 00:47:31;;;;;;;7.78;1.63;;;8.90;74.30;9.00;100018.00;;;;341212;28;83351;-87
2021/03/15 00:47:44;;;;;;;8.07;1.20;;;8.80;74.40;9.00;100018.00;;;;342658;28;89436;-87
2021/03/15 00:47:55;;;;;;;7.30;1.13;;;8.80;74.50;9.00;100025.00;;;;339739;28;82469;-87
2021/03/15 00:48:08;;;;;;;5.75;1.10;;;8.80;74.40;8.90;100015.00;;;;339745;28;89086;-87
2021/03/15 00:48:19;;;;;;;5.22;0.90;;;8.80;74.50;8.90;100029.00;;;;340034;28;83505;-87
2021/03/15 00:48:31;;;;;;;4.85;1.10;;;8.80;74.60;8.90;100023.00;;;;343608;28;91373;-86
2021/03/15 00:48:42;;;;;;;6.18;1.38;;;8.70;74.60;8.90;100024.00;;;;342824;28;83513;-87
2021/03/15 00:48:54;;;;;;;7.07;1.25;;;8.70;74.80;9.00;100017.00;;;;343473;28;87688;-88
2021/03/15 00:49:06;;;;;;;7.22;1.17;;;8.70;75.10;8.90;100021.00;;;;341559;28;84962;-87
2021/03/15 00:49:18;;;;;;;6.47;0.93;;;8.70;75.10;8.90;100022.00;;;;341362;28;89451;-87
2021/03/15 00:49:30;;;;;;;7.50;1.02;;;8.70;75.20;8.90;100019.00;;;;341200;28;83520;-87
2021/03/15 00:49:41;;;;;;;7.20;1.05;;;8.70;75.20;8.90;100023.00;;;;340883;28;88703;-87
2021/03/15 00:49:53;;;;;;;7.28;0.90;;;8.70;75.30;9.00;100028.00;;;;341477;28;83593;-86
2021/03/15 00:50:27;;;;;;;7.60;1.00;;;8.70;75.30;9.10;100021.00;;;;341191;28;90560;-87
2021/03/15 00:50:42;;;;;;;7.35;1.23;;;8.70;75.30;9.10;100023.00;;;;342723;28;83332;-87
2021/03/15 00:50:54;;;;;;;6.18;1.20;;;8.70;75.60;9.10;100019.00;;;;339581;28;88745;-88
2021/03/15 00:51:05;;;;;;;5.03;1.05;;;8.70;75.70;9.00;100028.00;;;;341873;28;82482;-87
2021/03/15 00:51:17;;;;;;;7.30;1.50;;;8.70;76.30;9.00;100016.00;;;;339941;28;89348;-87
2021/03/15 00:51:28;;;;;;;6.97;1.88;;;8.70;75.30;9.00;100021.00;;;;341544;28;84106;-87
2021/03/15 00:51:40;;;;;;;4.50;1.50;;;8.70;75.30;9.00;100025.00;;;;342622;28;89235;-87
2021/03/15 00:51:54;;;;;;;4.43;1.00;;;8.70;75.30;8.90;100030.00;;;;341790;28;82352;-88
2021/03/15 00:52:06;;;;;;;4.85;0.90;;;8.70;75.10;8.90;100016.00;;;;340949;28;91065;-87
2021/03/15 00:52:17;;;;;;;5.53;1.02;;;8.70;75.10;8.90;100022.00;;;;340343;28;84034;-86
2021/03/15 00:52:29;;;;;;;5.70;1.45;;;8.70;75.00;8.90;100019.00;;;;339836;28;90677;-88
2021/03/15 00:52:40;;;;;;;7.40;1.40;;;8.70;75.80;8.90;100019.00;;;;345545;28;83762;-88
2021/03/15 00:52:52;;;;;;;6.70;1.42;;;8.70;75.20;8.90;100014.00;;;;341385;28;88245;-87
2021/03/15 00:53:04;;;;;;;7.32;1.20;;;8.70;75.30;8.90;100018.00;;;;342746;28;83460;-88
2021/03/15 00:53:15;;;;;;;6.43;1.08;;;8.70;75.40;9.00;100012.00;;;;342704;28;88667;-87
2021/03/15 00:53:27;;;;;;;7.35;1.45;;;8.70;75.50;9.10;100017.00;;;;341585;28;83469;-88
2021/03/15 00:53:39;;;;;;;7.78;1.65;;;8.70;75.50;9.00;100018.00;;;;341292;28;89212;-87
2021/03/15 00:53:50;;;;;;;6.53;1.33;;;8.70;75.50;9.00;100022.00;;;;340126;28;83540;-87
2021/03/15 00:54:06;;;;;;;4.40;1.20;;;8.70;75.50;9.10;100019.00;;;;340885;28;89730;-87
2021/03/15 00:54:20;;;;;;;5.07;1.20;;;8.70;75.50;9.10;100023.00;;;;341198;28;82659;-88
2021/03/15 00:54:32;;;;;;;5.53;1.13;;;8.70;75.70;9.00;100019.00;;;;342443;28;91255;-87
2021/03/15 00:54:44;;;;;;;6.03;1.15;;;8.70;75.90;8.90;100019.00;;;;343042;28;82404;-87
2021/03/15 00:54:55;;;;;;;7.72;1.35;;;8.70;75.80;9.00;100024.00;;;;341668;28;88066;-87
2021/03/15 00:55:07;;;;;;;7.50;1.50;;;8.70;75.20;9.00;100021.00;;;;341357;28;83620;-87
2021/03/15 00:55:19;;;;;;;7.00;1.23;;;8.70;75.40;9.00;100027.00;;;;341260;28;89655;-87